Sitc Kaohsiung — 3EKK6 — position and weather

sailwx.info

Track history (hours):
 
Tides and Currents Weather Stations Pressure Air Temp Water Temp Dewpoint Dewpoint Depression Visibility Wind Speed Wind Dir Waves Ship Positions

Sitc Kaohsiung

Last reported at 2018-Jun-21 18:22 UTC. Time now 2018-Jun-24 22:26 UTC.
Position N 23°14' E 117°23'.

Length 140 m; draft 7.3 m.

Type: Ship (hazmat cat A). MMSI: 372748000.

Date/timePositionNaut miles runAvg speedWind from/ knotsBaromVisibWave heightAir tempDewpointWater temp
2018-Jun-21 18:22N 23°14' E 117°23'513.5
2018-Jun-21 17:59N 23°17' E 117°28'913.5
2018-Jun-21 17:19N 23°23' E 117°35'413.6
2018-Jun-21 17:00N 23°26' E 117°39'713.8
2018-Jun-21 16:31N 23°30' E 117°44'713.8
2018-Jun-21 15:59N 23°36' E 117°50'713.9
2018-Jun-21 15:30N 23°40' E 117°55'713.7
2018-Jun-21 14:58N 23°45' E 118°01'714.1
2018-Jun-21 14:30N 23°50' E 118°06'714.2
2018-Jun-21 14:00N 23°54' E 118°12'714.1
2018-Jun-21 13:30N 23°59' E 118°18'714.2
2018-Jun-21 13:00N 24°03' E 118°24'814.1
2018-Jun-21 12:25N 24°09' E 118°31'713.9
2018-Jun-21 11:53N 24°14' E 118°37'45712.8
2018-Jun-20 00:05N 31°07' E 122°17'115.6
2018-Jun-20 00:00N 31°07' E 122°16'2714.1
2018-Jun-19 22:07N 31°18' E 121°48'214.2
2018-Jun-19 22:00N 31°18' E 121°46'2 0.2
2018-Jun-19 09:28N 31°16' E 121°45'1011.5
2018-Jun-19 08:35N 31°09' E 121°54'812.4
2018-Jun-19 07:55N 31°05' E 122°02'512.5
2018-Jun-19 07:29N 31°03' E 122°08'5 9.9
2018-Jun-19 06:59N 31°03' E 122°14'48 3.1
2018-Jun-18 15:20N 31°18' E 123°08'1315.3
2018-Jun-18 14:28N 31°27' E 123°20'360 9.8
2018-Jun-17 01:46N 34°59' E 129°06'413.8
2018-Jun-17 01:31N 35°03' E 129°07'4 8.3
2018-Jun-17 01:00N 35°06' E 129°04'0 0.2
2018-Jun-17 00:30N 35°06' E 129°04'0 0.0
2018-Jun-17 00:00N 35°06' E 129°04'0 0.0
2018-Jun-16 23:30N 35°06' E 129°04'0 0.0
2018-Jun-16 23:00N 35°06' E 129°04'0 0.0
2018-Jun-16 22:30N 35°06' E 129°04'0 0.0
2018-Jun-16 22:00N 35°06' E 129°04'0 0.0
2018-Jun-16 21:30N 35°06' E 129°04'0 0.0
2018-Jun-16 21:00N 35°06' E 129°04'0 0.0
2018-Jun-16 20:30N 35°06' E 129°04'0 0.0
2018-Jun-16 19:57N 35°06' E 129°04'0 0.0
2018-Jun-16 19:30N 35°06' E 129°04'0 0.0
2018-Jun-16 19:00N 35°06' E 129°04'0 0.0
2018-Jun-16 18:30N 35°06' E 129°04'1 2.3
2018-Jun-16 18:00N 35°06' E 129°05'4 7.1
2018-Jun-16 17:30N 35°04' E 129°09'  
2018-Jun-14 12:31N 35°03' E 139°40'114.5
2018-Jun-14 12:28N 35°03' E 139°41'614.1
2018-Jun-14 12:00N 35°09' E 139°45'713.1
2018-Jun-14 11:30N 35°15' E 139°46'612.7
2018-Jun-14 11:00N 35°21' E 139°42'611.9
2018-Jun-14 10:30N 35°27' E 139°43'1 2.7
2018-Jun-14 09:58N 35°28' E 139°42'0 0.0
2018-Jun-14 09:28N 35°28' E 139°42'0 0.0
2018-Jun-14 08:58N 35°28' E 139°42'0 0.0
2018-Jun-14 08:28N 35°28' E 139°42'0 0.0
2018-Jun-14 07:58N 35°28' E 139°42'0 0.0
2018-Jun-14 07:28N 35°28' E 139°42'0 0.0
2018-Jun-14 06:58N 35°28' E 139°42'0 0.0
2018-Jun-14 06:28N 35°28' E 139°42'0 0.0
2018-Jun-14 05:58N 35°28' E 139°42'0 0.0
2018-Jun-14 05:28N 35°28' E 139°42'0 0.0
2018-Jun-14 04:58N 35°28' E 139°42'0 0.0
2018-Jun-14 04:28N 35°28' E 139°42'0 0.0
2018-Jun-14 03:58N 35°28' E 139°42'0 0.0
2018-Jun-14 03:28N 35°28' E 139°42'0 0.0
2018-Jun-14 02:58N 35°28' E 139°42'0 0.0
2018-Jun-14 02:28N 35°28' E 139°42'0 0.0
2018-Jun-14 01:58N 35°28' E 139°42'0 0.0
2018-Jun-14 01:28N 35°28' E 139°42'0 0.0
2018-Jun-14 00:58N 35°28' E 139°42'0 0.0
2018-Jun-14 00:28N 35°28' E 139°42'0 0.2
2018-Jun-14 00:00N 35°28' E 139°42'3 5.0
2018-Jun-13 23:31N 35°26' E 139°44'0 0.8
2018-Jun-13 23:00N 35°26' E 139°45'0 0.7
2018-Jun-13 22:30N 35°27' E 139°45'1 1.5
2018-Jun-13 22:00N 35°27' E 139°46'3 5.7
2018-Jun-13 21:30N 35°30' E 139°47'2 3.1
2018-Jun-13 20:57N 35°29' E 139°45'0 0.0
2018-Jun-13 20:27N 35°29' E 139°45'0 0.0
2018-Jun-13 20:00N 35°29' E 139°45'0 0.0
2018-Jun-13 19:30N 35°29' E 139°45'0 0.0
2018-Jun-13 19:00N 35°29' E 139°45'0 0.0
2018-Jun-13 18:30N 35°29' E 139°45'0 0.0
2018-Jun-13 18:00N 35°29' E 139°45'0 0.0
2018-Jun-13 17:30N 35°29' E 139°45'0 0.0
2018-Jun-13 17:00N 35°29' E 139°45'0 0.0
2018-Jun-13 16:30N 35°29' E 139°45'0 0.0
2018-Jun-13 16:00N 35°29' E 139°45'0 0.0
2018-Jun-13 15:27N 35°29' E 139°45'0 0.0
2018-Jun-13 15:00N 35°29' E 139°45'0 0.0
2018-Jun-13 14:27N 35°29' E 139°45'0 0.0
2018-Jun-13 14:00N 35°29' E 139°45'0 0.0
2018-Jun-13 13:27N 35°29' E 139°45'0 0.0
2018-Jun-13 13:00N 35°29' E 139°45'0 0.0
2018-Jun-13 12:27N 35°29' E 139°45'0 0.0
2018-Jun-13 12:00N 35°29' E 139°45'0 0.0
2018-Jun-13 11:30N 35°29' E 139°45'0 0.0
2018-Jun-13 11:00N 35°29' E 139°45'0 0.0
2018-Jun-13 10:30N 35°29' E 139°45'0 0.0
2018-Jun-13 10:00N 35°29' E 139°45'0 0.0
2018-Jun-13 09:29N 35°29' E 139°45'1 2.0
2018-Jun-13 09:00N 35°28' E 139°45'2 4.2
2018-Jun-13 08:30N 35°28' E 139°47'4 7.1
2018-Jun-13 08:00N 35°30' E 139°51'610.9
2018-Jun-13 07:30N 35°35' E 139°47'2 4.1
2018-Jun-13 06:59N 35°37' E 139°46'0 0.0
2018-Jun-13 03:18N 35°37' E 139°46'0 0.0
2018-Jun-13 02:54N 35°37' E 139°46'0 0.0
2018-Jun-13 02:24N 35°37' E 139°46'0 0.0
2018-Jun-13 01:54N 35°37' E 139°46'0 0.0
2018-Jun-13 01:30N 35°37' E 139°46'0 0.0
2018-Jun-13 00:57N 35°37' E 139°46'0 0.0
2018-Jun-12 23:51N 35°37' E 139°46'0 0.0
2018-Jun-12 23:30N 35°37' E 139°46'0 0.0
2018-Jun-12 22:54N 35°37' E 139°46'0 0.1
2018-Jun-12 22:27N 35°37' E 139°46'2 3.9
2018-Jun-12 21:59N 35°35' E 139°47'6 9.6
2018-Jun-12 21:24N 35°31' E 139°52'410.5
2018-Jun-12 21:00N 35°27' E 139°50'5 9.4
2018-Jun-12 20:31N 35°24' E 139°46'510.5
2018-Jun-12 20:00N 35°19' E 139°44'611.7
2018-Jun-12 19:30N 35°13' E 139°47'  
Track history (hours):
 
Tides and Currents Weather Stations Pressure Air Temp Water Temp Dewpoint Dewpoint Depression Visibility Wind Speed Wind Dir Waves Ship Positions

Sitc Kaohsiung

Last reported at 2018-Jun-21 18:22 UTC. Time now 2018-Jun-24 22:26 UTC.
Position N 23°14' E 117°23'.

Length 140 m; draft 7.3 m.

Type: Ship (hazmat cat A). MMSI: 372748000.

Date/timePositionNaut miles runAvg speedWind from/ knotsBaromVisibWave heightAir tempDewpointWater temp
2018-Jun-21 18:22N 23°14' E 117°23'513.5
2018-Jun-21 17:59N 23°17' E 117°28'913.5
2018-Jun-21 17:19N 23°23' E 117°35'413.6
2018-Jun-21 17:00N 23°26' E 117°39'713.8
2018-Jun-21 16:31N 23°30' E 117°44'713.8
2018-Jun-21 15:59N 23°36' E 117°50'713.9
2018-Jun-21 15:30N 23°40' E 117°55'713.7
2018-Jun-21 14:58N 23°45' E 118°01'714.1
2018-Jun-21 14:30N 23°50' E 118°06'714.2
2018-Jun-21 14:00N 23°54' E 118°12'714.1
2018-Jun-21 13:30N 23°59' E 118°18'714.2
2018-Jun-21 13:00N 24°03' E 118°24'814.1
2018-Jun-21 12:25N 24°09' E 118°31'713.9
2018-Jun-21 11:53N 24°14' E 118°37'45712.8
2018-Jun-20 00:05N 31°07' E 122°17'115.6
2018-Jun-20 00:00N 31°07' E 122°16'2714.1
2018-Jun-19 22:07N 31°18' E 121°48'214.2
2018-Jun-19 22:00N 31°18' E 121°46'2 0.2
2018-Jun-19 09:28N 31°16' E 121°45'1011.5
2018-Jun-19 08:35N 31°09' E 121°54'812.4
2018-Jun-19 07:55N 31°05' E 122°02'512.5
2018-Jun-19 07:29N 31°03' E 122°08'5 9.9
2018-Jun-19 06:59N 31°03' E 122°14'48 3.1
2018-Jun-18 15:20N 31°18' E 123°08'1315.3
2018-Jun-18 14:28N 31°27' E 123°20'360 9.8
2018-Jun-17 01:46N 34°59' E 129°06'413.8
2018-Jun-17 01:31N 35°03' E 129°07'4 8.3
2018-Jun-17 01:00N 35°06' E 129°04'0 0.2
2018-Jun-17 00:30N 35°06' E 129°04'0 0.0
2018-Jun-17 00:00N 35°06' E 129°04'0 0.0
2018-Jun-16 23:30N 35°06' E 129°04'0 0.0
2018-Jun-16 23:00N 35°06' E 129°04'0 0.0
2018-Jun-16 22:30N 35°06' E 129°04'0 0.0
2018-Jun-16 22:00N 35°06' E 129°04'0 0.0
2018-Jun-16 21:30N 35°06' E 129°04'0 0.0
2018-Jun-16 21:00N 35°06' E 129°04'0 0.0
2018-Jun-16 20:30N 35°06' E 129°04'0 0.0
2018-Jun-16 19:57N 35°06' E 129°04'0 0.0
2018-Jun-16 19:30N 35°06' E 129°04'0 0.0
2018-Jun-16 19:00N 35°06' E 129°04'0 0.0
2018-Jun-16 18:30N 35°06' E 129°04'1 2.3
2018-Jun-16 18:00N 35°06' E 129°05'4 7.1
2018-Jun-16 17:30N 35°04' E 129°09'  
2018-Jun-14 12:31N 35°03' E 139°40'114.5
2018-Jun-14 12:28N 35°03' E 139°41'614.1
2018-Jun-14 12:00N 35°09' E 139°45'713.1
2018-Jun-14 11:30N 35°15' E 139°46'612.7
2018-Jun-14 11:00N 35°21' E 139°42'611.9
2018-Jun-14 10:30N 35°27' E 139°43'1 2.7
2018-Jun-14 09:58N 35°28' E 139°42'0 0.0
2018-Jun-14 09:28N 35°28' E 139°42'0 0.0
2018-Jun-14 08:58N 35°28' E 139°42'0 0.0
2018-Jun-14 08:28N 35°28' E 139°42'0 0.0
2018-Jun-14 07:58N 35°28' E 139°42'0 0.0
2018-Jun-14 07:28N 35°28' E 139°42'0 0.0
2018-Jun-14 06:58N 35°28' E 139°42'0 0.0
2018-Jun-14 06:28N 35°28' E 139°42'0 0.0
2018-Jun-14 05:58N 35°28' E 139°42'0 0.0
2018-Jun-14 05:28N 35°28' E 139°42'0 0.0
2018-Jun-14 04:58N 35°28' E 139°42'0 0.0
2018-Jun-14 04:28N 35°28' E 139°42'0 0.0
2018-Jun-14 03:58N 35°28' E 139°42'0 0.0
2018-Jun-14 03:28N 35°28' E 139°42'0 0.0
2018-Jun-14 02:58N 35°28' E 139°42'0 0.0
2018-Jun-14 02:28N 35°28' E 139°42'0 0.0
2018-Jun-14 01:58N 35°28' E 139°42'0 0.0
2018-Jun-14 01:28N 35°28' E 139°42'0 0.0
2018-Jun-14 00:58N 35°28' E 139°42'0 0.0
2018-Jun-14 00:28N 35°28' E 139°42'0 0.2
2018-Jun-14 00:00N 35°28' E 139°42'3 5.0
2018-Jun-13 23:31N 35°26' E 139°44'0 0.8
2018-Jun-13 23:00N 35°26' E 139°45'0 0.7
2018-Jun-13 22:30N 35°27' E 139°45'1 1.5
2018-Jun-13 22:00N 35°27' E 139°46'3 5.7
2018-Jun-13 21:30N 35°30' E 139°47'2 3.1
2018-Jun-13 20:57N 35°29' E 139°45'0 0.0
2018-Jun-13 20:27N 35°29' E 139°45'0 0.0
2018-Jun-13 20:00N 35°29' E 139°45'0 0.0
2018-Jun-13 19:30N 35°29' E 139°45'0 0.0
2018-Jun-13 19:00N 35°29' E 139°45'0 0.0
2018-Jun-13 18:30N 35°29' E 139°45'0 0.0
2018-Jun-13 18:00N 35°29' E 139°45'0 0.0
2018-Jun-13 17:30N 35°29' E 139°45'0 0.0
2018-Jun-13 17:00N 35°29' E 139°45'0 0.0
2018-Jun-13 16:30N 35°29' E 139°45'0 0.0
2018-Jun-13 16:00N 35°29' E 139°45'0 0.0
2018-Jun-13 15:27N 35°29' E 139°45'0 0.0
2018-Jun-13 15:00N 35°29' E 139°45'0 0.0
2018-Jun-13 14:27N 35°29' E 139°45'0 0.0
2018-Jun-13 14:00N 35°29' E 139°45'0 0.0
2018-Jun-13 13:27N 35°29' E 139°45'0 0.0
2018-Jun-13 13:00N 35°29' E 139°45'0 0.0
2018-Jun-13 12:27N 35°29' E 139°45'0 0.0
2018-Jun-13 12:00N 35°29' E 139°45'0 0.0
2018-Jun-13 11:30N 35°29' E 139°45'0 0.0
2018-Jun-13 11:00N 35°29' E 139°45'0 0.0
2018-Jun-13 10:30N 35°29' E 139°45'0 0.0
2018-Jun-13 10:00N 35°29' E 139°45'0 0.0
2018-Jun-13 09:29N 35°29' E 139°45'1 2.0
2018-Jun-13 09:00N 35°28' E 139°45'2 4.2
2018-Jun-13 08:30N 35°28' E 139°47'4 7.1
2018-Jun-13 08:00N 35°30' E 139°51'610.9
2018-Jun-13 07:30N 35°35' E 139°47'2 4.1
2018-Jun-13 06:59N 35°37' E 139°46'0 0.0
2018-Jun-13 03:18N 35°37' E 139°46'0 0.0
2018-Jun-13 02:54N 35°37' E 139°46'0 0.0
2018-Jun-13 02:24N 35°37' E 139°46'0 0.0
2018-Jun-13 01:54N 35°37' E 139°46'0 0.0
2018-Jun-13 01:30N 35°37' E 139°46'0 0.0
2018-Jun-13 00:57N 35°37' E 139°46'0 0.0
2018-Jun-12 23:51N 35°37' E 139°46'0 0.0
2018-Jun-12 23:30N 35°37' E 139°46'0 0.0
2018-Jun-12 22:54N 35°37' E 139°46'0 0.1
2018-Jun-12 22:27N 35°37' E 139°46'2 3.9
2018-Jun-12 21:59N 35°35' E 139°47'6 9.6
2018-Jun-12 21:24N 35°31' E 139°52'410.5
2018-Jun-12 21:00N 35°27' E 139°50'5 9.4
2018-Jun-12 20:31N 35°24' E 139°46'510.5
2018-Jun-12 20:00N 35°19' E 139°44'611.7
2018-Jun-12 19:30N 35°13' E 139°47'  

Dump ship's entire track history